Terminal Aerodrome Forecast
Issued by NWS

Home | Current Version | Previous Version | Text Only | Print | Product List | Glossary On
Versions: 1 2 3 4 5 6 7 8 9 10 11 12 13 14 15 16
000
FTUS43 KDLH 282300
TAFBRD
TAF
KBRD 282333Z 2900/2924 19012G19KT P6SM BKN250
     FM290300 19012G19KT P6SM OVC250 WS020/19045KT
     FM290800 20012G19KT P6SM -RA OVC070 WS020/20045KT
     FM291200 23010G17KT 6SM -RA OVC020
     FM291600 31020G35KT 6SM -RA OVC025=

USA.gov is the U.S. government's official web portal to all federal, state and local government web resources and services.